Time;durP1;ratioP1;P1;durP2;ratioP2;P2;SDS_P1;SDS_P2;PMS_P1;PMS_P2;Temp;Humidity;BMP_temperature;BMP_pressure;BME280_temperature;BME280_humidity;BME280_pressure;Samples;Min_cycle;Max_cycle;Signal;HPM_P1;HPM_P2
2023/05/29 00:00:01;;;;;;;;;12.75;12.00;;;;;21.89;47.64;101220.81;2070831;28;46561;-62
2023/05/29 00:01:01;;;;;;;;;10.75;10.75;;;;;21.88;47.31;101219.09;2070720;28;47440;-62
2023/05/29 00:02:02;;;;;;;;;12.00;11.80;;;;;21.88;46.99;101221.78;2070528;28;46463;-62
2023/05/29 00:03:04;;;;;;;;;12.50;11.75;;;;;21.89;47.55;101217.25;2071217;28;45688;-63
2023/05/29 00:04:05;;;;;;;;;11.80;9.00;;;;;21.88;47.16;101213.69;2071071;28;45155;-61
2023/05/29 00:05:05;;;;;;;;;11.00;10.00;;;;;21.88;47.42;101218.22;2070732;28;45985;-62
2023/05/29 00:06:06;;;;;;;;;14.00;12.25;;;;;21.86;47.31;101217.44;2071114;28;45813;-62
2023/05/29 00:07:06;;;;;;;;;12.00;9.50;;;;;21.86;47.02;101215.63;2071118;28;45741;-61
2023/05/29 00:08:06;;;;;;;;;10.75;10.75;;;;;21.86;47.41;101218.31;2071036;28;46726;-63
2023/05/29 00:09:07;;;;;;;;;9.50;9.50;;;;;21.85;47.30;101212.97;2070736;28;46012;-63
2023/05/29 00:10:09;;;;;;;;;11.25;10.00;;;;;21.86;47.01;101209.34;2071200;28;45788;-64
2023/05/29 00:11:10;;;;;;;;;11.00;10.00;;;;;21.85;47.19;101223.78;2063563;28;45589;-61
2023/05/29 00:12:11;;;;;;;;;14.25;12.50;;;;;21.83;47.32;101220.31;2062322;28;49247;-64
2023/05/29 00:13:12;;;;;;;;;12.80;12.80;;;;;21.82;47.83;101219.44;2071341;28;46747;-63
2023/05/29 00:14:13;;;;;;;;;13.00;12.25;;;;;21.82;47.39;101222.16;2070882;28;46534;-65
2023/05/29 00:15:14;;;;;;;;;13.20;10.80;;;;;21.82;47.21;101221.28;2070954;28;45229;-62
2023/05/29 00:16:14;;;;;;;;;12.50;9.00;;;;;21.81;47.32;101222.25;2071396;28;45573;-62
2023/05/29 00:17:15;;;;;;;;;13.75;11.50;;;;;21.80;47.37;101220.50;2070096;28;45470;-61
2023/05/29 00:18:15;;;;;;;;;11.25;11.25;;;;;21.79;46.96;101222.34;2071079;28;45788;-61
2023/05/29 00:19:16;;;;;;;;;12.00;12.00;;;;;21.77;47.46;101216.16;2070828;28;46873;-60
2023/05/29 00:20:18;;;;;;;;;11.20;11.20;;;;;21.74;47.65;101221.75;2071280;28;45493;-62
2023/05/29 00:21:18;;;;;;;;;9.80;9.80;;;;;21.72;47.12;101221.84;2070642;28;45883;-61
2023/05/29 00:22:19;;;;;;;;;11.25;10.50;;;;;21.72;47.34;101229.06;2070924;28;45815;-63
2023/05/29 00:23:21;;;;;;;;;11.50;11.50;;;;;21.70;47.18;101228.28;2071634;28;46177;-62
2023/05/29 00:24:21;;;;;;;;;9.20;9.20;;;;;21.70;47.27;101221.06;2071847;28;45848;-62
2023/05/29 00:25:22;;;;;;;;;9.25;6.25;;;;;21.68;47.29;101220.28;2071428;28;47035;-63
2023/05/29 00:26:22;;;;;;;;;10.25;9.50;;;;;21.69;47.50;101226.56;2072237;28;46220;-62
2023/05/29 00:27:22;;;;;;;;;14.00;13.50;;;;;21.67;47.37;101223.94;2071844;28;45701;-62
2023/05/29 00:28:23;;;;;;;;;12.50;12.25;;;;;21.66;47.85;101227.63;2072138;28;46849;-62
2023/05/29 00:29:23;;;;;;;;;11.75;11.00;;;;;21.64;47.78;101231.38;2072529;28;45816;-64
2023/05/29 00:30:23;;;;;;;;;12.25;12.25;;;;;21.62;47.54;101225.19;2072366;28;45607;-63
2023/05/29 00:31:24;;;;;;;;;9.50;9.50;;;;;21.61;47.75;101228.88;2072050;28;45997;-63
2023/05/29 00:32:25;;;;;;;;;12.00;10.25;;;;;21.58;47.87;101227.19;2072429;28;45890;-64
2023/05/29 00:33:25;;;;;;;;;9.50;9.50;;;;;21.57;47.70;101230.84;2072346;28;45717;-62
2023/05/29 00:34:26;;;;;;;;;10.25;10.25;;;;;21.55;47.73;101227.38;2072532;28;45798;-63
2023/05/29 00:35:26;;;;;;;;;9.50;9.00;;;;;21.54;47.76;101232.88;2072042;28;46364;-62
2023/05/29 00:36:28;;;;;;;;;8.50;8.50;;;;;21.52;47.67;101224.88;2071096;28;45432;-61
2023/05/29 00:37:28;;;;;;;;;11.00;11.00;;;;;21.52;47.65;101232.97;2063201;28;45080;-63
2023/05/29 00:38:29;;;;;;;;;12.25;12.00;;;;;21.52;48.11;101229.41;2069726;28;45130;-61
2023/05/29 00:39:29;;;;;;;;;12.00;12.00;;;;;21.52;47.66;101222.16;2066519;28;45906;-63
2023/05/29 00:40:30;;;;;;;;;9.75;9.75;;;;;21.51;47.44;101225.84;2069544;28;46175;-62
2023/05/29 00:41:30;;;;;;;;;12.00;11.00;;;;;21.51;47.39;101227.66;2071670;28;46493;-61
2023/05/29 00:42:30;;;;;;;;;14.00;9.00;;;;;21.48;48.07;101222.44;2071732;28;45914;-62
2023/05/29 00:43:30;;;;;;;;;10.50;10.50;;;;;21.46;47.70;101222.50;2071496;28;45900;-62
2023/05/29 00:44:31;;;;;;;;;13.75;11.25;;;;;21.44;47.92;101219.91;2071863;28;45833;-62
2023/05/29 00:45:35;;;;;;;;;12.00;10.25;;;;;21.44;47.57;101219.03;2071625;28;45395;-64
2023/05/29 00:46:36;;;;;;;;;11.40;10.20;;;;;21.43;47.96;101218.16;2072165;28;45785;-63
2023/05/29 00:47:37;;;;;;;;;8.25;7.50;;;;;21.43;47.45;101215.47;2072428;28;45102;-62
2023/05/29 00:48:37;;;;;;;;;10.75;10.25;;;;;21.42;48.19;101219.13;2072050;28;46075;-62
2023/05/29 00:49:38;;;;;;;;;9.50;8.25;;;;;21.41;47.84;101219.22;2068836;28;45654;-62
2023/05/29 00:50:38;;;;;;;;;12.00;11.00;;;;;21.38;48.12;101214.00;2065057;28;45677;-64
2023/05/29 00:51:40;;;;;;;;;9.50;9.50;;;;;21.36;47.69;101216.81;2066769;28;46807;-61
2023/05/29 00:52:42;;;;;;;;;12.00;11.60;;;;;21.34;47.70;101213.34;2071753;28;45687;-63
2023/05/29 00:53:44;;;;;;;;;9.80;9.40;;;;;21.34;48.07;101215.13;2071532;28;46486;-63
2023/05/29 00:54:45;;;;;;;;;10.60;10.60;;;;;21.32;47.94;101211.66;2071871;28;45877;-63
2023/05/29 00:55:46;;;;;;;;;12.40;12.40;;;;;21.32;47.75;101217.94;2071199;28;46023;-62
2023/05/29 00:56:47;;;;;;;;;10.75;9.00;;;;;21.30;47.89;101211.75;2070630;28;46927;-61
2023/05/29 00:57:49;;;;;;;;;11.60;11.00;;;;;21.28;47.88;101213.69;2071588;28;46446;-62
2023/05/29 00:58:51;;;;;;;;;8.00;7.80;;;;;21.28;47.86;101216.38;2071516;28;46598;-60
2023/05/29 00:59:51;;;;;;;;;11.60;11.60;;;;;21.25;47.68;101213.88;2071914;28;45988;-62
2023/05/29 01:00:52;;;;;;;;;13.25;13.00;;;;;21.24;47.72;101209.38;2071774;28;45932;-62
2023/05/29 01:01:55;;;;;;;;;12.25;10.25;;;;;21.25;47.98;101215.66;2071213;28;45958;-62
2023/05/29 01:02:56;;;;;;;;;9.60;8.60;;;;;21.23;48.22;101217.59;2071124;28;46686;-62
2023/05/29 01:03:59;;;;;;;;;11.20;11.20;;;;;21.22;47.80;101208.63;2071017;28;46449;-63
2023/05/29 01:04:59;;;;;;;;;11.00;11.00;;;;;21.21;48.21;101206.84;2072125;28;45862;-60
2023/05/29 01:06:00;;;;;;;;;10.00;9.25;;;;;21.19;48.27;101203.38;2072019;28;46427;-61
2023/05/29 01:07:02;;;;;;;;;13.00;12.50;;;;;21.18;48.19;101204.34;2071527;28;45305;-61
2023/05/29 01:08:02;;;;;;;;;11.20;9.80;;;;;21.17;47.99;101205.28;2071366;28;46065;-62
2023/05/29 01:09:03;;;;;;;;;12.50;10.75;;;;;21.14;47.83;101203.66;2071478;28;45758;-63
2023/05/29 01:10:05;;;;;;;;;14.75;12.50;;;;;21.13;47.87;101201.91;2072087;28;45528;-63
2023/05/29 01:11:17;;;;;;;;;12.40;11.00;;;;;21.12;48.01;101207.41;2071185;28;47057;-63
2023/05/29 01:12:52;;;;;;;;;10.80;10.80;;;;;21.10;48.42;101210.19;2071054;28;45599;-63
2023/05/29 01:13:55;;;;;;;;;14.00;14.00;;;;;21.09;48.17;101205.75;2070426;28;46610;-64
2023/05/29 01:15:08;;;;;;;;;11.80;11.40;;;;;21.07;48.58;101204.94;2071995;28;45968;-63
2023/05/29 01:16:26;;;;;;;;;8.80;8.00;;;;;21.06;48.48;101196.94;2071603;28;46919;-63
2023/05/29 01:17:55;;;;;;;;;10.20;10.20;;;;;21.03;48.36;101192.59;2071567;28;46097;-62
2023/05/29 01:19:39;;;;;;;;;12.20;12.20;;;;;21.03;48.39;101197.13;2055094;28;45943;-62
2023/05/29 01:21:08;;;;;;;;;10.40;10.40;;;;;21.00;48.53;101200.88;2022539;29;45930;-62
2023/05/29 01:22:25;;;;;;;;;11.00;10.20;;;;;20.98;48.32;101201.94;2006970;29;46746;-64
2023/05/29 01:23:51;;;;;;;;;9.20;9.20;;;;;20.96;48.21;101204.72;2006837;29;46791;-63
2023/05/29 01:25:20;;;;;;;;;12.00;12.00;;;;;20.96;48.97;101201.13;2007247;29;46149;-62
2023/05/29 01:26:52;;;;;;;;;13.00;13.00;;;;;20.95;48.34;101204.78;2006682;29;47013;-60
2023/05/29 01:27:55;;;;;;;;;11.40;11.40;;;;;20.93;48.59;101206.69;1999404;29;45184;-64
2023/05/29 01:29:00;;;;;;;;;9.40;9.40;;;;;20.91;48.47;101193.31;1999412;29;46064;-62
2023/05/29 01:30:02;;;;;;;;;8.00;7.60;;;;;20.91;48.34;101204.09;1999315;29;46040;-61
2023/05/29 01:31:04;;;;;;;;;6.40;5.00;;;;;20.90;48.86;101210.44;1998072;29;46656;-63
2023/05/29 01:32:05;;;;;;;;;9.60;9.60;;;;;20.90;48.91;101202.34;1997710;29;45768;-62
2023/05/29 01:33:06;;;;;;;;;9.00;9.00;;;;;20.90;48.49;101196.09;1999518;29;45893;-62
2023/05/29 01:34:07;;;;;;;;;8.60;8.60;;;;;20.89;48.92;101199.75;1999177;29;45720;-64
2023/05/29 01:35:08;;;;;;;;;11.25;9.75;;;;;20.86;48.89;101200.81;1999776;29;46025;-62
2023/05/29 01:36:09;;;;;;;;;10.20;9.80;;;;;20.86;48.82;101206.19;1999979;29;46715;-62
2023/05/29 01:37:09;;;;;;;;;9.75;9.50;;;;;20.83;48.84;101201.84;2000896;29;45805;-62
2023/05/29 01:38:10;;;;;;;;;10.00;8.50;;;;;20.82;48.53;101199.22;2000681;29;46114;-62
2023/05/29 01:39:10;;;;;;;;;9.67;9.67;;;;;20.80;48.66;101206.53;1991953;29;45675;-61
2023/05/29 01:40:11;;;;;;;;;10.25;10.00;;;;;20.80;48.72;101206.53;1992616;29;45584;-62
2023/05/29 01:41:12;;;;;;;;;11.80;9.80;;;;;20.79;48.99;101202.09;2000790;29;45475;-62
2023/05/29 01:42:13;;;;;;;;;9.00;9.00;;;;;20.78;48.91;101203.06;2000333;29;46298;-62
2023/05/29 01:43:14;;;;;;;;;11.20;10.00;;;;;20.76;48.74;101199.56;2000839;29;46426;-62
2023/05/29 01:44:15;;;;;;;;;10.50;10.50;;;;;20.75;49.16;101200.53;2000449;29;46891;-62
2023/05/29 01:45:16;;;;;;;;;11.25;11.00;;;;;20.75;49.18;101209.50;1993641;29;45207;-62
2023/05/29 01:46:18;;;;;;;;;13.80;11.20;;;;;20.74;49.04;101205.06;1992696;29;46531;-61
2023/05/29 01:47:18;;;;;;;;;9.60;9.60;;;;;20.74;49.18;101204.19;2001111;29;45728;-59
2023/05/29 01:48:19;;;;;;;;;6.75;6.75;;;;;20.72;49.36;101201.59;2008663;29;44962;-62
2023/05/29 01:49:21;;;;;;;;;9.00;9.00;;;;;20.72;49.26;101206.97;2007108;29;45088;-61
2023/05/29 01:50:23;;;;;;;;;10.00;9.00;;;;;20.71;48.80;101207.03;2001160;29;46316;-62
2023/05/29 01:51:24;;;;;;;;;8.60;7.80;;;;;20.70;49.42;101208.00;2000617;29;45563;-62
2023/05/29 01:52:24;;;;;;;;;11.75;10.00;;;;;20.68;49.46;101200.00;2001005;29;45627;-61
2023/05/29 01:53:24;;;;;;;;;10.00;10.00;;;;;20.67;49.36;101202.78;2001006;29;45727;-62
2023/05/29 01:54:25;;;;;;;;;11.00;11.00;;;;;20.66;49.20;101210.00;1992869;29;45433;-62
2023/05/29 01:55:25;;;;;;;;;8.25;8.25;;;;;20.64;49.13;101209.22;1992976;29;46082;-63
2023/05/29 01:56:27;;;;;;;;;13.00;10.75;;;;;20.63;49.58;101206.63;1993213;29;46242;-62
2023/05/29 01:57:27;;;;;;;;;11.60;10.60;;;;;20.62;49.03;101208.44;1980486;29;45640;-63
2023/05/29 01:58:30;;;;;;;;;11.00;10.50;;;;;20.62;49.27;101205.75;2000565;29;46373;-63
2023/05/29 01:59:31;;;;;;;;;9.00;8.00;;;;;20.62;49.35;101196.78;2010161;29;46332;-63
2023/05/29 02:00:32;;;;;;;;;12.75;11.50;;;;;20.60;49.53;101201.41;2032020;28;45872;-63
2023/05/29 02:01:32;;;;;;;;;10.00;10.00;;;;;20.59;49.38;101203.22;2039319;28;46530;-63
2023/05/29 02:02:37;;;;;;;;;12.00;11.75;;;;;20.57;49.66;101208.69;2035064;28;45130;-62
2023/05/29 02:03:37;;;;;;;;;11.00;10.60;;;;;20.57;49.66;101199.72;2038135;28;46907;-63
2023/05/29 02:04:38;;;;;;;;;13.00;9.00;;;;;20.56;49.52;101206.06;2039620;28;46103;-63
2023/05/29 02:05:38;;;;;;;;;11.25;9.75;;;;;20.54;49.17;101203.47;2055867;28;46570;-64
2023/05/29 02:06:39;;;;;;;;;12.50;10.75;;;;;20.53;49.38;101199.03;2072385;28;45505;-64
2023/05/29 02:07:39;;;;;;;;;7.00;7.00;;;;;20.52;50.02;101207.22;2069458;28;46471;-63
2023/05/29 02:08:39;;;;;;;;;13.00;10.50;;;;;20.51;49.72;101197.38;2071365;28;46771;-63
2023/05/29 02:09:40;;;;;;;;;10.75;10.00;;;;;20.49;49.47;101208.25;2063805;28;46464;-61
2023/05/29 02:10:40;;;;;;;;;10.75;9.00;;;;;20.50;49.70;101209.13;2068817;28;45505;-63
2023/05/29 02:11:45;;;;;;;;;10.00;9.50;;;;;20.49;49.97;101205.56;2064426;28;45473;-63
2023/05/29 02:12:45;;;;;;;;;14.20;13.00;;;;;20.48;49.28;101205.66;2071139;28;45584;-62
2023/05/29 02:13:46;;;;;;;;;9.75;9.75;;;;;20.45;49.45;101206.66;2071536;28;46496;-62
2023/05/29 02:14:46;;;;;;;;;10.75;10.50;;;;;20.45;49.70;101205.78;2063293;28;46405;-62
2023/05/29 02:15:46;;;;;;;;;11.25;10.75;;;;;20.43;49.49;101205.00;2063649;28;45775;-63
2023/05/29 02:16:48;;;;;;;;;12.50;12.50;;;;;20.43;49.42;101194.22;2071295;28;46960;-63
2023/05/29 02:17:49;;;;;;;;;12.80;11.80;;;;;20.42;49.52;101196.06;2071512;28;46628;-67
2023/05/29 02:18:51;;;;;;;;;8.40;8.00;;;;;20.41;49.36;101199.66;2072438;28;46246;-62
2023/05/29 02:19:51;;;;;;;;;10.80;10.80;;;;;20.41;50.04;101198.81;2071951;28;45748;-63
2023/05/29 02:20:52;;;;;;;;;8.75;8.75;;;;;20.39;49.97;101198.88;2072802;28;46042;-65
2023/05/29 02:21:53;;;;;;;;;7.50;7.50;;;;;20.40;49.77;101202.44;2071734;28;47741;-64
2023/05/29 02:22:53;;;;;;;;;9.20;9.00;;;;;20.39;50.13;101196.19;2071908;28;46416;-61
2023/05/29 02:23:54;;;;;;;;;11.00;10.00;;;;;20.38;50.10;101198.97;2072132;28;45611;-62
2023/05/29 02:24:54;;;;;;;;;16.00;12.75;;;;;20.37;50.05;101202.63;2072555;28;45564;-61
2023/05/29 02:25:54;;;;;;;;;9.50;9.00;;;;;20.35;49.62;101202.72;2072397;28;46588;-62
2023/05/29 02:26:55;;;;;;;;;10.00;9.75;;;;;20.34;49.81;101197.41;2080412;28;47255;-63
2023/05/29 02:27:55;;;;;;;;;9.50;7.50;;;;;20.33;50.20;101206.44;2080190;28;45761;-63
2023/05/29 02:28:55;;;;;;;;;11.00;11.00;;;;;20.32;50.27;101208.25;2071308;28;47647;-60
2023/05/29 02:29:56;;;;;;;;;10.25;8.25;;;;;20.31;50.30;101198.44;2072497;28;46019;-59
2023/05/29 02:30:56;;;;;;;;;15.50;12.25;;;;;20.31;50.06;101203.81;2072710;28;46100;-63
2023/05/29 02:31:56;;;;;;;;;11.25;10.75;;;;;20.30;49.93;101202.06;2072077;28;44979;-62
2023/05/29 02:32:57;;;;;;;;;12.00;10.75;;;;;20.31;49.95;101206.50;2071880;28;46249;-62
2023/05/29 02:33:57;;;;;;;;;10.50;9.25;;;;;20.31;50.06;101211.91;2072361;28;46095;-62
2023/05/29 02:34:58;;;;;;;;;12.50;11.25;;;;;20.29;50.41;101211.13;2072495;28;45491;-62
2023/05/29 02:35:58;;;;;;;;;10.50;9.50;;;;;20.31;50.41;101205.63;2073155;28;45819;-63
2023/05/29 02:36:58;;;;;;;;;9.00;9.00;;;;;20.30;49.89;101204.78;2072553;28;47495;-60
2023/05/29 02:37:59;;;;;;;;;9.00;9.00;;;;;20.28;50.05;101209.38;2072021;28;46233;-62
2023/05/29 02:38:59;;;;;;;;;10.00;10.00;;;;;20.27;50.11;101208.50;2070135;28;46525;-65
2023/05/29 02:39:59;;;;;;;;;10.00;10.00;;;;;20.27;50.04;101205.81;2065968;28;45732;-63
2023/05/29 02:41:00;;;;;;;;;12.25;10.00;;;;;20.25;50.27;101210.41;2072013;28;45500;-63
2023/05/29 02:42:00;;;;;;;;;11.00;10.00;;;;;20.24;50.28;101213.19;2072783;28;45034;-61
2023/05/29 02:43:00;;;;;;;;;8.25;8.25;;;;;20.23;50.36;101214.16;2072905;28;45612;-63
2023/05/29 02:44:00;;;;;;;;;9.50;9.25;;;;;20.22;50.09;101213.28;2072544;28;45393;-61
2023/05/29 02:45:01;;;;;;;;;10.75;10.75;;;;;20.20;50.49;101212.50;2072084;28;45912;-62
2023/05/29 02:46:01;;;;;;;;;11.50;9.00;;;;;20.19;50.65;101212.56;2072577;28;45974;-61
2023/05/29 02:47:02;;;;;;;;;10.50;10.00;;;;;20.15;50.54;101213.69;2071906;28;46051;-63
2023/05/29 02:48:03;;;;;;;;;12.00;12.00;;;;;20.12;50.29;101213.88;2070155;28;45775;-63
2023/05/29 02:49:03;;;;;;;;;9.00;9.00;;;;;20.11;50.77;101215.69;2063045;28;45997;-62
2023/05/29 02:50:04;;;;;;;;;10.25;10.25;;;;;20.10;50.55;101216.66;2071956;28;46388;-61
2023/05/29 02:51:05;;;;;;;;;10.50;10.00;;;;;20.10;50.68;101222.03;2072173;28;45124;-62
2023/05/29 02:52:05;;;;;;;;;12.75;12.75;;;;;20.09;50.40;101212.22;2072833;28;45990;-62
2023/05/29 02:53:06;;;;;;;;;10.75;10.75;;;;;20.06;50.74;101208.78;2072265;28;46420;-63
2023/05/29 02:54:06;;;;;;;;;9.25;8.00;;;;;20.05;50.86;101216.00;2071762;28;45833;-63
2023/05/29 02:55:07;;;;;;;;;8.50;8.00;;;;;20.04;50.74;101214.25;2071710;28;45919;-62
2023/05/29 02:56:08;;;;;;;;;12.25;11.50;;;;;20.04;51.13;101211.56;2072418;28;46612;-62
2023/05/29 02:57:09;;;;;;;;;12.20;9.20;;;;;20.04;51.03;101208.00;2072482;28;45873;-63
2023/05/29 02:58:11;;;;;;;;;8.00;8.00;;;;;20.04;51.01;101216.09;2072414;28;45581;-61
2023/05/29 02:59:11;;;;;;;;;12.80;10.80;;;;;20.04;51.12;101214.25;2071786;28;47627;-63
2023/05/29 03:00:12;;;;;;;;;11.75;10.25;;;;;20.02;50.66;101208.09;2072236;28;45826;-62
2023/05/29 03:01:13;;;;;;;;;11.00;11.00;;;;;20.01;51.05;101218.94;2072195;28;47262;-63
2023/05/29 03:02:13;;;;;;;;;11.00;9.50;;;;;19.99;51.23;101213.66;2072552;28;47156;-62
2023/05/29 03:03:13;;;;;;;;;9.75;9.75;;;;;19.97;51.35;101223.63;2072847;28;45141;-63
2023/05/29 03:04:14;;;;;;;;;11.00;10.50;;;;;19.95;51.33;101217.47;2072502;28;46667;-61
2023/05/29 03:05:16;;;;;;;;;10.50;9.75;;;;;19.94;51.28;101221.94;2073477;28;45622;-62
2023/05/29 03:06:17;;;;;;;;;9.00;8.80;;;;;19.92;51.45;101221.16;2072953;28;46287;-62
2023/05/29 03:07:18;;;;;;;;;11.60;11.00;;;;;19.91;51.30;101219.44;2067160;28;46010;-62
2023/05/29 03:08:19;;;;;;;;;10.60;9.80;;;;;19.90;51.28;101216.81;2072443;28;46563;-62
2023/05/29 03:09:20;;;;;;;;;11.00;11.00;;;;;19.88;51.36;101221.41;2071968;28;45523;-62
2023/05/29 03:10:20;;;;;;;;;10.00;9.80;;;;;19.88;51.17;101221.41;2072298;28;45561;-62
2023/05/29 03:11:23;;;;;;;;;12.50;11.00;;;;;19.88;51.44;101226.81;2079632;28;45617;-63
2023/05/29 03:12:23;;;;;;;;;11.00;9.80;;;;;19.88;51.46;101219.59;2071375;28;46656;-61
2023/05/29 03:13:24;;;;;;;;;9.75;9.75;;;;;19.87;51.74;101223.25;2070893;28;45637;-64
2023/05/29 03:14:24;;;;;;;;;10.75;8.50;;;;;19.86;51.71;101220.63;2071865;28;46483;-61
2023/05/29 03:15:24;;;;;;;;;11.50;11.00;;;;;19.83;51.56;101221.66;2071681;28;45095;-62
2023/05/29 03:16:25;;;;;;;;;10.75;10.75;;;;;19.80;51.77;101223.63;2071850;28;45507;-63
2023/05/29 03:17:25;;;;;;;;;10.75;10.25;;;;;19.79;51.35;101220.06;2068600;28;46779;-62
2023/05/29 03:18:25;;;;;;;;;10.75;9.75;;;;;19.77;51.61;101230.03;2071836;28;46976;-63
2023/05/29 03:19:26;;;;;;;;;8.75;8.75;;;;;19.77;51.93;101234.56;2072035;28;46677;-61
2023/05/29 03:20:27;;;;;;;;;14.75;14.75;;;;;19.76;51.93;101224.75;2072468;28;46149;-62
2023/05/29 03:21:28;;;;;;;;;11.20;8.80;;;;;19.76;51.86;101230.13;2071859;28;45329;-62
2023/05/29 03:22:28;;;;;;;;;8.00;8.00;;;;;19.75;51.91;101229.25;2072085;28;45956;-62
2023/05/29 03:23:28;;;;;;;;;11.00;10.75;;;;;19.74;52.09;101232.91;2072210;28;44952;-64
2023/05/29 03:24:29;;;;;;;;;12.25;11.00;;;;;19.74;51.48;101232.03;2079484;28;45917;-63
2023/05/29 03:25:29;;;;;;;;;12.50;10.25;;;;;19.73;52.10;101231.16;2079585;28;46235;-62
2023/05/29 03:26:29;;;;;;;;;9.50;9.50;;;;;19.71;51.77;101227.69;2071671;28;47150;-63
2023/05/29 03:27:30;;;;;;;;;13.00;12.50;;;;;19.71;51.63;101230.38;2072006;28;46259;-60
2023/05/29 03:28:31;;;;;;;;;12.50;10.50;;;;;19.69;51.67;101234.94;2071683;28;46756;-62
2023/05/29 03:29:32;;;;;;;;;14.00;12.50;;;;;19.67;52.06;101231.47;2072059;28;45492;-64
2023/05/29 03:30:32;;;;;;;;;10.00;8.75;;;;;19.66;51.88;101233.28;2063353;28;45362;-62
2023/05/29 03:31:33;;;;;;;;;11.50;11.50;;;;;19.63;52.25;101228.06;2071255;28;46135;-61
2023/05/29 03:32:33;;;;;;;;;9.00;8.50;;;;;19.62;52.22;101225.47;2071786;28;46074;-62
2023/05/29 03:33:33;;;;;;;;;10.00;9.50;;;;;19.61;52.13;101229.09;2072159;28;46688;-62
2023/05/29 03:34:34;;;;;;;;;11.50;11.50;;;;;19.60;52.29;101243.53;2072110;28;46009;-62
2023/05/29 03:35:34;;;;;;;;;13.00;12.75;;;;;19.59;52.58;101236.41;2072406;28;45656;-62
2023/05/29 03:36:36;;;;;;;;;10.50;10.50;;;;;19.58;52.22;101237.34;2072342;28;45396;-61
2023/05/29 03:37:36;;;;;;;;;9.20;9.20;;;;;19.55;52.21;101238.34;2072235;28;45394;-62
2023/05/29 03:38:37;;;;;;;;;11.00;10.00;;;;;19.53;53.07;101232.13;2072577;28;46553;-63
2023/05/29 03:39:37;;;;;;;;;11.25;8.75;;;;;19.51;52.41;101239.44;2066567;28;45573;-63
2023/05/29 03:40:37;;;;;;;;;11.50;11.00;;;;;19.51;52.72;101238.56;2070997;28;46209;-61
2023/05/29 03:41:38;;;;;;;;;9.50;9.50;;;;;19.49;52.84;101240.47;2070548;28;46696;-63
2023/05/29 03:42:38;;;;;;;;;11.00;11.00;;;;;19.47;52.98;101245.94;2072027;28;45460;-62
2023/05/29 03:43:39;;;;;;;;;13.75;12.00;;;;;19.45;52.77;101230.81;2072020;28;45472;-62
2023/05/29 03:44:39;;;;;;;;;9.75;9.75;;;;;19.45;52.64;101234.38;2072557;28;46064;-63
2023/05/29 03:45:40;;;;;;;;;13.00;10.50;;;;;19.42;52.86;101243.44;2072169;28;46002;-62
2023/05/29 03:46:40;;;;;;;;;12.00;11.75;;;;;19.41;52.62;101239.00;2071650;28;46272;-62
2023/05/29 03:47:40;;;;;;;;;10.25;10.25;;;;;19.41;52.60;101241.69;2071409;28;46689;-62
2023/05/29 03:48:41;;;;;;;;;11.50;11.50;;;;;19.40;52.69;101248.03;2072378;28;45575;-61
2023/05/29 03:49:41;;;;;;;;;11.00;11.00;;;;;19.40;52.84;101248.03;2071677;28;45612;-62
2023/05/29 03:50:41;;;;;;;;;11.75;11.25;;;;;19.39;53.03;101242.72;2072084;28;46299;-63
2023/05/29 03:51:41;;;;;;;;;10.75;10.75;;;;;19.37;52.86;101240.13;2071313;28;45535;-63
2023/05/29 03:52:42;;;;;;;;;10.50;10.25;;;;;19.37;53.13;101241.94;2071710;28;45364;-62
2023/05/29 03:53:42;;;;;;;;;14.25;11.00;;;;;19.37;52.64;101247.31;2071926;28;47538;-63
2023/05/29 03:54:44;;;;;;;;;10.50;10.50;;;;;19.36;52.88;101246.47;2071876;28;45687;-62
2023/05/29 03:55:45;;;;;;;;;11.60;11.60;;;;;19.35;52.69;101247.41;2072093;28;46015;-62
2023/05/29 03:56:45;;;;;;;;;12.25;10.00;;;;;19.33;53.01;101254.69;2071683;28;46433;-63
2023/05/29 03:57:45;;;;;;;;;11.50;10.75;;;;;19.32;53.28;101252.94;2071145;28;46037;-62
2023/05/29 03:58:46;;;;;;;;;12.50;11.50;;;;;19.30;52.88;101252.13;2071764;28;45614;-62
2023/05/29 03:59:46;;;;;;;;;12.00;12.00;;;;;19.30;53.31;101241.34;2072341;28;45566;-62
2023/05/29 04:00:46;;;;;;;;;11.00;11.00;;;;;19.29;53.19;101255.75;2071934;28;46139;-62
2023/05/29 04:01:47;;;;;;;;;14.25;13.25;;;;;19.28;53.27;101256.72;2072041;28;46482;-61
2023/05/29 04:02:47;;;;;;;;;10.25;9.25;;;;;19.28;53.32;101251.34;2071873;28;46679;-61
2023/05/29 04:03:48;;;;;;;;;12.25;11.25;;;;;19.28;53.26;101250.47;2071634;28;45555;-63
2023/05/29 04:04:48;;;;;;;;;13.75;13.00;;;;;19.26;53.61;101253.22;2071832;28;46489;-61
2023/05/29 04:05:49;;;;;;;;;12.00;11.50;;;;;19.26;53.15;101249.69;2071703;28;46722;-62
2023/05/29 04:06:49;;;;;;;;;12.25;12.25;;;;;19.27;53.51;101249.59;2072260;28;47157;-62
2023/05/29 04:07:50;;;;;;;;;9.50;9.50;;;;;19.27;53.21;101252.28;2079430;28;46139;-63
2023/05/29 04:08:50;;;;;;;;;12.25;11.00;;;;;19.28;53.31;101248.63;2079768;28;46719;-60
2023/05/29 04:09:50;;;;;;;;;12.50;12.00;;;;;19.29;53.12;101257.59;2071610;28;46828;-60
2023/05/29 04:10:53;;;;;;;;;10.75;10.75;;;;;19.31;53.19;101261.97;2071917;28;46368;-61
2023/05/29 04:11:54;;;;;;;;;12.40;12.20;;;;;19.31;52.86;101255.69;2069068;28;46605;-62
2023/05/29 04:12:55;;;;;;;;;12.00;9.60;;;;;19.31;53.20;101267.34;2071649;28;46933;-61
2023/05/29 04:13:55;;;;;;;;;10.50;10.50;;;;;19.32;53.58;101274.47;2071111;28;45765;-61
2023/05/29 04:14:55;;;;;;;;;10.75;9.75;;;;;19.32;53.57;101266.41;2072090;28;44897;-61
2023/05/29 04:15:56;;;;;;;;;11.75;11.75;;;;;19.32;53.14;101268.22;2071550;28;45569;-62
2023/05/29 04:16:56;;;;;;;;;12.00;11.00;;;;;19.30;53.50;101273.66;2062250;28;46115;-63
2023/05/29 04:17:56;;;;;;;;;10.75;10.75;;;;;19.31;53.45;101275.44;2070887;28;46803;-62
2023/05/29 04:18:57;;;;;;;;;11.75;10.50;;;;;19.32;53.67;101279.88;2071991;28;45792;-62
2023/05/29 04:19:57;;;;;;;;;11.75;11.00;;;;;19.33;53.52;101272.66;2071777;28;45720;-62
2023/05/29 04:20:58;;;;;;;;;7.25;6.75;;;;;19.32;53.36;101274.47;2072260;28;46830;-63
2023/05/29 04:21:58;;;;;;;;;13.25;11.50;;;;;19.31;53.02;101277.22;2072365;28;45628;-62
2023/05/29 04:22:58;;;;;;;;;14.75;13.75;;;;;19.31;53.66;101279.91;2071937;28;45935;-62
2023/05/29 04:23:59;;;;;;;;;13.50;12.00;;;;;19.31;53.52;101285.28;2072157;28;45833;-60
2023/05/29 04:24:59;;;;;;;;;13.75;13.00;;;;;19.30;53.71;101284.41;2071965;28;45503;-63
2023/05/29 04:26:01;;;;;;;;;11.50;10.50;;;;;19.30;53.45;101284.41;2071394;28;46784;-61
2023/05/29 04:27:02;;;;;;;;;13.00;12.20;;;;;19.31;53.46;101283.50;2071280;28;46815;-60
2023/05/29 04:28:03;;;;;;;;;11.25;11.25;;;;;19.30;53.97;101281.72;2072160;28;45827;-63
2023/05/29 04:29:03;;;;;;;;;11.40;10.60;;;;;19.29;53.81;101290.75;2072032;28;45909;-63
2023/05/29 04:30:06;;;;;;;;;11.75;10.00;;;;;19.29;53.54;101292.56;2070854;28;47780;-62
2023/05/29 04:31:06;;;;;;;;;13.00;13.00;;;;;19.28;53.76;101285.44;2072102;28;45971;-61
2023/05/29 04:32:08;;;;;;;;;10.00;9.75;;;;;19.27;53.51;101286.41;2072644;28;45118;-62
2023/05/29 04:33:12;;;;;;;;;11.60;10.60;;;;;19.26;53.48;101288.22;2071637;28;46111;-62
2023/05/29 04:34:17;;;;;;;;;13.20;13.20;;;;;19.27;53.39;101291.78;2072334;28;46026;-62
2023/05/29 04:35:17;;;;;;;;;15.40;13.00;;;;;19.26;53.54;101293.59;2071828;28;45639;-63
2023/05/29 04:36:19;;;;;;;;;14.25;12.75;;;;;19.25;53.76;101296.38;2071697;28;47384;-61
2023/05/29 04:37:21;;;;;;;;;14.00;13.40;;;;;19.23;53.47;101293.75;2070882;28;46635;-62
2023/05/29 04:38:24;;;;;;;;;13.80;12.60;;;;;19.24;53.71;101298.19;2079626;28;46357;-60
2023/05/29 04:39:25;;;;;;;;;11.60;11.60;;;;;19.25;53.33;101293.69;2066967;28;46644;-64
2023/05/29 04:40:26;;;;;;;;;13.00;12.00;;;;;19.24;53.64;101305.38;2067684;28;45100;-63
2023/05/29 04:41:30;;;;;;;;;10.20;9.80;;;;;19.24;54.05;101297.31;2071245;28;45904;-61
2023/05/29 04:42:33;;;;;;;;;13.00;12.20;;;;;19.22;53.83;101302.78;2070507;28;45938;-63